sensor_id;sensor_type;location;lat;lon;timestamp;pressure;altitude;pressure_sealevel;temperature;humidity
23318;BME280;11831;55.918;37.746;2023-03-04T00:02:03;97610.88;;;1.49;0.00
23318;BME280;11831;55.918;37.746;2023-03-04T00:04:30;97609.03;;;0.93;0.00
23318;BME280;11831;55.918;37.746;2023-03-04T00:06:56;97606.56;;;1.30;0.00
23318;BME280;11831;55.918;37.746;2023-03-04T00:09:23;97605.31;;;0.63;0.00
23318;BME280;11831;55.918;37.746;2023-03-04T00:11:49;97614.09;;;0.95;0.00
23318;BME280;11831;55.918;37.746;2023-03-04T00:14:15;97619.38;;;0.30;0.00
23318;BME280;11831;55.918;37.746;2023-03-04T00:16:41;97612.53;;;0.16;0.00
23318;BME280;11831;55.918;37.746;2023-03-04T00:19:09;97590.72;;;0.09;0.00
23318;BME280;11831;55.918;37.746;2023-03-04T00:21:36;97594.53;;;0.20;0.00
23318;BME280;11831;55.918;37.746;2023-03-04T00:24:02;97590.72;;;0.09;0.00
23318;BME280;11831;55.918;37.746;2023-03-04T00:26:28;97588.69;;;0.11;0.00
23318;BME280;11831;55.918;37.746;2023-03-04T00:28:54;97583.56;;;0.43;0.00
23318;BME280;11831;55.918;37.746;2023-03-04T00:31:21;97584.16;;;0.45;0.00
23318;BME280;11831;55.918;37.746;2023-03-04T00:33:47;97591.22;;;0.44;0.00
23318;BME280;11831;55.918;37.746;2023-03-04T00:36:13;97574.31;;;1.10;0.00
23318;BME280;11831;55.918;37.746;2023-03-04T00:38:39;97574.34;;;1.03;0.00
23318;BME280;11831;55.918;37.746;2023-03-04T00:41:06;97563.56;;;1.11;0.00
23318;BME280;11831;55.918;37.746;2023-03-04T00:43:32;97563.41;;;1.06;0.00
23318;BME280;11831;55.918;37.746;2023-03-04T00:45:58;97561.47;;;0.88;0.00
23318;BME280;11831;55.918;37.746;2023-03-04T00:48:24;97555.44;;;1.13;0.00
23318;BME280;11831;55.918;37.746;2023-03-04T00:50:51;97559.81;;;1.26;0.00
23318;BME280;11831;55.918;37.746;2023-03-04T00:53:19;97576.22;;;0.51;0.00
23318;BME280;11831;55.918;37.746;2023-03-04T00:55:45;97575.38;;;0.64;0.00
23318;BME280;11831;55.918;37.746;2023-03-04T00:58:11;97574.09;;;0.35;0.00
23318;BME280;11831;55.918;37.746;2023-03-04T01:00:38;97577.41;;;0.04;0.00
23318;BME280;11831;55.918;37.746;2023-03-04T01:03:04;97568.16;;;0.84;0.00
23318;BME280;11831;55.918;37.746;2023-03-04T01:05:30;97563.94;;;0.39;0.00
23318;BME280;11831;55.918;37.746;2023-03-04T01:07:59;97558.97;;;0.17;0.00
23318;BME280;11831;55.918;37.746;2023-03-04T01:10:25;97562.00;;;0.14;0.00
23318;BME280;11831;55.918;37.746;2023-03-04T01:12:51;97572.88;;;0.31;0.00
23318;BME280;11831;55.918;37.746;2023-03-04T01:15:18;97566.00;;;0.23;0.00
23318;BME280;11831;55.918;37.746;2023-03-04T01:17:44;97561.41;;;0.12;0.00
23318;BME280;11831;55.918;37.746;2023-03-04T01:20:11;97562.28;;;0.51;0.00
23318;BME280;11831;55.918;37.746;2023-03-04T01:22:38;97568.25;;;0.20;0.00
23318;BME280;11831;55.918;37.746;2023-03-04T01:25:05;97563.19;;;0.25;0.00
23318;BME280;11831;55.918;37.746;2023-03-04T01:27:31;97554.94;;;0.15;0.00
23318;BME280;11831;55.918;37.746;2023-03-04T01:29:58;97560.19;;;0.15;0.00
23318;BME280;11831;55.918;37.746;2023-03-04T01:32:24;97556.34;;;0.17;0.00
23318;BME280;11831;55.918;37.746;2023-03-04T01:34:50;97552.53;;;0.07;0.00
23318;BME280;11831;55.918;37.746;2023-03-04T01:37:16;97544.84;;;0.56;0.00
23318;BME280;11831;55.918;37.746;2023-03-04T01:39:43;97548.59;;;0.36;0.00
23318;BME280;11831;55.918;37.746;2023-03-04T01:42:17;97547.44;;;0.18;0.00
23318;BME280;11831;55.918;37.746;2023-03-04T01:44:45;97553.72;;;0.11;0.00
23318;BME280;11831;55.918;37.746;2023-03-04T01:47:12;97548.03;;;0.20;0.00
23318;BME280;11831;55.918;37.746;2023-03-04T01:49:39;97534.25;;;0.25;0.00
23318;BME280;11831;55.918;37.746;2023-03-04T01:52:10;97534.91;;;0.14;0.00
23318;BME280;11831;55.918;37.746;2023-03-04T01:54:37;97534.09;;;0.20;0.00
23318;BME280;11831;55.918;37.746;2023-03-04T01:57:16;97521.16;;;0.63;0.00
23318;BME280;11831;55.918;37.746;2023-03-04T01:59:43;97519.13;;;0.65;0.00
23318;BME280;11831;55.918;37.746;2023-03-04T02:02:11;97519.34;;;0.57;0.00
23318;BME280;11831;55.918;37.746;2023-03-04T02:04:38;97523.94;;;0.30;0.00
23318;BME280;11831;55.918;37.746;2023-03-04T02:07:05;97524.34;;;0.34;0.00
23318;BME280;11831;55.918;37.746;2023-03-04T02:09:32;97524.41;;;0.14;0.00
23318;BME280;11831;55.918;37.746;2023-03-04T02:11:59;97526.75;;;-0.23;0.00
23318;BME280;11831;55.918;37.746;2023-03-04T02:14:25;97523.34;;;-0.56;0.00
23318;BME280;11831;55.918;37.746;2023-03-04T02:16:52;97514.34;;;-0.03;0.00
23318;BME280;11831;55.918;37.746;2023-03-04T02:22:18;97508.94;;;-0.14;0.00
23318;BME280;11831;55.918;37.746;2023-03-04T02:24:47;97506.47;;;-0.09;0.00
23318;BME280;11831;55.918;37.746;2023-03-04T02:27:15;97501.84;;;-0.07;0.00
23318;BME280;11831;55.918;37.746;2023-03-04T02:29:41;97487.06;;;0.05;0.00
23318;BME280;11831;55.918;37.746;2023-03-04T02:32:10;97486.19;;;0.56;0.00
23318;BME280;11831;55.918;37.746;2023-03-04T02:34:50;97478.22;;;0.38;0.00
23318;BME280;11831;55.918;37.746;2023-03-04T02:37:17;97470.16;;;0.26;0.00
23318;BME280;11831;55.918;37.746;2023-03-04T02:39:46;97465.09;;;0.31;0.00
23318;BME280;11831;55.918;37.746;2023-03-04T02:42:14;97465.78;;;0.13;0.00
23318;BME280;11831;55.918;37.746;2023-03-04T02:44:43;97461.00;;;-0.03;0.00
23318;BME280;11831;55.918;37.746;2023-03-04T02:47:12;97462.75;;;0.16;0.00
23318;BME280;11831;55.918;37.746;2023-03-04T02:49:40;97455.44;;;0.18;0.00
23318;BME280;11831;55.918;37.746;2023-03-04T02:54:36;97452.22;;;-0.35;0.00
23318;BME280;11831;55.918;37.746;2023-03-04T02:57:08;97447.47;;;0.00;0.00
23318;BME280;11831;55.918;37.746;2023-03-04T02:59:36;97456.34;;;-0.01;0.00
23318;BME280;11831;55.918;37.746;2023-03-04T03:02:03;97443.53;;;0.16;0.00
23318;BME280;11831;55.918;37.746;2023-03-04T03:04:29;97438.63;;;0.26;0.00
23318;BME280;11831;55.918;37.746;2023-03-04T03:06:56;97431.44;;;0.08;0.00
23318;BME280;11831;55.918;37.746;2023-03-04T03:09:22;97437.91;;;0.44;0.00
23318;BME280;11831;55.918;37.746;2023-03-04T03:11:48;97424.56;;;0.45;0.00
23318;BME280;11831;55.918;37.746;2023-03-04T03:14:15;97425.34;;;0.77;0.00
23318;BME280;11831;55.918;37.746;2023-03-04T03:16:41;97428.31;;;0.31;0.00
23318;BME280;11831;55.918;37.746;2023-03-04T03:19:08;97428.66;;;-0.04;0.00
23318;BME280;11831;55.918;37.746;2023-03-04T03:21:34;97416.47;;;0.47;0.00
23318;BME280;11831;55.918;37.746;2023-03-04T03:24:00;97419.63;;;0.24;0.00
23318;BME280;11831;55.918;37.746;2023-03-04T03:26:27;97418.34;;;-0.05;0.00
23318;BME280;11831;55.918;37.746;2023-03-04T03:28:53;97410.25;;;-0.04;0.00
23318;BME280;11831;55.918;37.746;2023-03-04T03:31:19;97397.72;;;0.68;0.00
23318;BME280;11831;55.918;37.746;2023-03-04T03:33:46;97397.88;;;0.73;0.00
23318;BME280;11831;55.918;37.746;2023-03-04T03:36:12;97395.59;;;1.02;0.00
23318;BME280;11831;55.918;37.746;2023-03-04T03:40:04;97401.25;;;0.80;0.00
23318;BME280;11831;55.918;37.746;2023-03-04T03:42:31;97401.94;;;0.06;0.00
23318;BME280;11831;55.918;37.746;2023-03-04T03:44:57;97407.22;;;-0.01;0.00
23318;BME280;11831;55.918;37.746;2023-03-04T03:47:23;97408.81;;;-0.44;0.00
23318;BME280;11831;55.918;37.746;2023-03-04T03:49:50;97411.06;;;-0.48;0.00
23318;BME280;11831;55.918;37.746;2023-03-04T03:52:16;97410.88;;;-0.66;0.00
23318;BME280;11831;55.918;37.746;2023-03-04T03:54:43;97409.66;;;-0.64;0.00
23318;BME280;11831;55.918;37.746;2023-03-04T03:57:09;97401.19;;;-0.08;0.00
23318;BME280;11831;55.918;37.746;2023-03-04T03:59:35;97394.16;;;-0.14;0.00
23318;BME280;11831;55.918;37.746;2023-03-04T04:02:02;97397.09;;;-0.42;0.00
23318;BME280;11831;55.918;37.746;2023-03-04T04:04:28;97397.34;;;-0.56;0.00
23318;BME280;11831;55.918;37.746;2023-03-04T04:06:55;97381.56;;;-0.43;0.00
23318;BME280;11831;55.918;37.746;2023-03-04T04:09:21;97380.13;;;-0.01;0.00
23318;BME280;11831;55.918;37.746;2023-03-04T04:11:48;97371.84;;;-0.43;0.00
23318;BME280;11831;55.918;37.746;2023-03-04T04:14:14;97372.69;;;-0.49;0.00
23318;BME280;11831;55.918;37.746;2023-03-04T04:16:41;97353.53;;;-0.11;0.00
23318;BME280;11831;55.918;37.746;2023-03-04T04:19:13;97354.41;;;-0.24;0.00
23318;BME280;11831;55.918;37.746;2023-03-04T04:21:41;97354.66;;;0.38;0.00
23318;BME280;11831;55.918;37.746;2023-03-04T04:24:07;97353.16;;;0.17;0.00
23318;BME280;11831;55.918;37.746;2023-03-04T04:26:34;97344.28;;;0.43;0.00
23318;BME280;11831;55.918;37.746;2023-03-04T04:29:00;97338.88;;;0.06;0.00
23318;BME280;11831;55.918;37.746;2023-03-04T04:31:26;97337.16;;;0.50;0.00
23318;BME280;11831;55.918;37.746;2023-03-04T04:33:53;97339.31;;;0.03;0.00
23318;BME280;11831;55.918;37.746;2023-03-04T04:36:19;97339.00;;;-0.14;0.00
23318;BME280;11831;55.918;37.746;2023-03-04T04:38:45;97338.94;;;-0.45;0.00
23318;BME280;11831;55.918;37.746;2023-03-04T04:41:23;97340.22;;;-0.68;0.00
23318;BME280;11831;55.918;37.746;2023-03-04T04:43:50;97349.31;;;-0.64;0.00
23318;BME280;11831;55.918;37.746;2023-03-04T04:46:16;97339.88;;;-0.26;0.00
23318;BME280;11831;55.918;37.746;2023-03-04T04:48:43;97343.34;;;0.06;0.00
23318;BME280;11831;55.918;37.746;2023-03-04T04:51:10;97338.56;;;-0.49;0.00
23318;BME280;11831;55.918;37.746;2023-03-04T04:53:37;97332.16;;;-0.59;0.00
23318;BME280;11831;55.918;37.746;2023-03-04T04:56:15;97333.34;;;-0.17;0.00
23318;BME280;11831;55.918;37.746;2023-03-04T04:58:43;97338.44;;;-0.22;0.00
23318;BME280;11831;55.918;37.746;2023-03-04T05:01:11;97330.41;;;-0.27;0.00
23318;BME280;11831;55.918;37.746;2023-03-04T05:03:38;97332.34;;;-0.61;0.00
23318;BME280;11831;55.918;37.746;2023-03-04T05:06:07;97338.84;;;-0.77;0.00
23318;BME280;11831;55.918;37.746;2023-03-04T05:08:34;97339.72;;;-0.89;0.00
23318;BME280;11831;55.918;37.746;2023-03-04T05:11:03;97351.84;;;-1.28;0.00
23318;BME280;11831;55.918;37.746;2023-03-04T05:13:30;97341.59;;;-1.56;0.00
23318;BME280;11831;55.918;37.746;2023-03-04T05:15:57;97341.97;;;-1.26;0.00
23318;BME280;11831;55.918;37.746;2023-03-04T05:18:25;97334.56;;;-0.65;0.00
23318;BME280;11831;55.918;37.746;2023-03-04T05:20:57;97350.19;;;-0.96;0.00
23318;BME280;11831;55.918;37.746;2023-03-04T05:23:24;97352.44;;;-1.00;0.00
23318;BME280;11831;55.918;37.746;2023-03-04T05:25:51;97342.63;;;-0.53;0.00
23318;BME280;11831;55.918;37.746;2023-03-04T05:28:18;97358.81;;;-0.69;0.00
23318;BME280;11831;55.918;37.746;2023-03-04T05:30:46;97342.50;;;-0.33;0.00
23318;BME280;11831;55.918;37.746;2023-03-04T05:33:14;97335.16;;;-0.56;0.00
23318;BME280;11831;55.918;37.746;2023-03-04T05:35:42;97331.66;;;0.02;0.00
23318;BME280;11831;55.918;37.746;2023-03-04T05:38:11;97330.78;;;-0.24;0.00
23318;BME280;11831;55.918;37.746;2023-03-04T05:40:38;97328.22;;;0.01;0.00
23318;BME280;11831;55.918;37.746;2023-03-04T05:43:04;97332.47;;;-0.05;0.00
23318;BME280;11831;55.918;37.746;2023-03-04T05:45:31;97327.41;;;0.25;0.00
23318;BME280;11831;55.918;37.746;2023-03-04T05:47:57;97316.03;;;0.63;0.00
23318;BME280;11831;55.918;37.746;2023-03-04T05:50:24;97321.97;;;0.52;0.00
23318;BME280;11831;55.918;37.746;2023-03-04T05:52:51;97320.94;;;0.53;0.00
23318;BME280;11831;55.918;37.746;2023-03-04T05:55:17;97311.06;;;0.23;0.00
23318;BME280;11831;55.918;37.746;2023-03-04T05:57:44;97315.22;;;0.38;0.00
23318;BME280;11831;55.918;37.746;2023-03-04T06:00:11;97306.03;;;0.47;0.00
23318;BME280;11831;55.918;37.746;2023-03-04T06:02:40;97300.94;;;0.52;0.00
23318;BME280;11831;55.918;37.746;2023-03-04T06:05:08;97296.69;;;0.51;0.00
23318;BME280;11831;55.918;37.746;2023-03-04T06:07:35;97305.22;;;0.89;0.00
23318;BME280;11831;55.918;37.746;2023-03-04T06:10:01;97294.69;;;0.89;0.00
23318;BME280;11831;55.918;37.746;2023-03-04T06:12:29;97296.03;;;0.55;0.00
23318;BME280;11831;55.918;37.746;2023-03-04T06:14:56;97291.81;;;0.54;0.00
23318;BME280;11831;55.918;37.746;2023-03-04T06:17:22;97301.47;;;0.36;0.00
23318;BME280;11831;55.918;37.746;2023-03-04T06:19:48;97295.06;;;0.32;0.00
23318;BME280;11831;55.918;37.746;2023-03-04T06:22:15;97294.81;;;0.58;0.00
23318;BME280;11831;55.918;37.746;2023-03-04T06:24:41;97292.97;;;0.58;0.00
23318;BME280;11831;55.918;37.746;2023-03-04T06:27:08;97291.47;;;0.69;0.00
23318;BME280;11831;55.918;37.746;2023-03-04T06:29:34;97292.72;;;0.42;0.00
23318;BME280;11831;55.918;37.746;2023-03-04T06:32:00;97291.00;;;0.97;0.00
23318;BME280;11831;55.918;37.746;2023-03-04T06:34:28;97281.94;;;1.30;0.00
23318;BME280;11831;55.918;37.746;2023-03-04T06:36:54;97293.19;;;1.85;0.00
23318;BME280;11831;55.918;37.746;2023-03-04T06:39:21;97286.25;;;1.06;0.00
23318;BME280;11831;55.918;37.746;2023-03-04T06:41:47;97282.19;;;1.58;0.00
23318;BME280;11831;55.918;37.746;2023-03-04T06:44:14;97275.09;;;1.59;0.00
23318;BME280;11831;55.918;37.746;2023-03-04T06:46:41;97275.34;;;1.69;0.00
23318;BME280;11831;55.918;37.746;2023-03-04T06:49:07;97266.28;;;2.06;0.00
23318;BME280;11831;55.918;37.746;2023-03-04T06:51:33;97262.94;;;1.87;0.00
23318;BME280;11831;55.918;37.746;2023-03-04T06:54:00;97265.41;;;2.24;0.00
23318;BME280;11831;55.918;37.746;2023-03-04T06:56:26;97262.25;;;2.45;0.00
23318;BME280;11831;55.918;37.746;2023-03-04T06:58:53;97253.97;;;2.65;0.00
23318;BME280;11831;55.918;37.746;2023-03-04T07:01:23;97257.19;;;3.31;0.00
23318;BME280;11831;55.918;37.746;2023-03-04T07:03:51;97250.56;;;3.57;0.00
23318;BME280;11831;55.918;37.746;2023-03-04T07:06:21;97250.75;;;2.87;0.00
23318;BME280;11831;55.918;37.746;2023-03-04T07:08:48;97247.75;;;2.36;0.00
23318;BME280;11831;55.918;37.746;2023-03-04T07:11:15;97247.22;;;2.46;0.00
23318;BME280;11831;55.918;37.746;2023-03-04T07:13:42;97250.69;;;2.05;0.00
23318;BME280;11831;55.918;37.746;2023-03-04T07:16:10;97243.38;;;2.07;0.00
23318;BME280;11831;55.918;37.746;2023-03-04T07:18:37;97244.50;;;1.99;0.00
23318;BME280;11831;55.918;37.746;2023-03-04T07:21:05;97237.97;;;1.90;0.00
23318;BME280;11831;55.918;37.746;2023-03-04T07:23:32;97241.31;;;2.09;0.00
23318;BME280;11831;55.918;37.746;2023-03-04T07:25:59;97231.31;;;1.87;0.00
23318;BME280;11831;55.918;37.746;2023-03-04T07:28:26;97221.16;;;2.61;0.00
23318;BME280;11831;55.918;37.746;2023-03-04T07:30:52;97214.06;;;2.50;0.00
23318;BME280;11831;55.918;37.746;2023-03-04T07:33:18;97211.75;;;2.65;0.00
23318;BME280;11831;55.918;37.746;2023-03-04T07:35:45;97209.91;;;2.66;0.00
23318;BME280;11831;55.918;37.746;2023-03-04T07:38:11;97198.25;;;3.14;0.00
23318;BME280;11831;55.918;37.746;2023-03-04T07:40:38;97195.69;;;3.92;0.00
23318;BME280;11831;55.918;37.746;2023-03-04T07:43:04;97193.59;;;4.28;0.00
23318;BME280;11831;55.918;37.746;2023-03-04T07:45:30;97188.94;;;4.18;0.00
23318;BME280;11831;55.918;37.746;2023-03-04T07:47:57;97179.72;;;4.76;0.00
23318;BME280;11831;55.918;37.746;2023-03-04T07:50:24;97188.66;;;4.31;0.00
23318;BME280;11831;55.918;37.746;2023-03-04T07:52:50;97183.50;;;3.74;0.00
23318;BME280;11831;55.918;37.746;2023-03-04T07:55:17;97177.34;;;5.45;0.00
23318;BME280;11831;55.918;37.746;2023-03-04T07:57:45;97170.81;;;4.27;0.00
23318;BME280;11831;55.918;37.746;2023-03-04T08:00:14;97174.19;;;4.99;0.00
23318;BME280;11831;55.918;37.746;2023-03-04T08:02:41;97175.34;;;4.87;0.00
23318;BME280;11831;55.918;37.746;2023-03-04T08:05:08;97173.81;;;4.30;0.00
23318;BME280;11831;55.918;37.746;2023-03-04T08:07:34;97170.47;;;4.01;0.00
23318;BME280;11831;55.918;37.746;2023-03-04T08:10:01;97173.84;;;3.52;0.00
23318;BME280;11831;55.918;37.746;2023-03-04T08:12:27;97169.88;;;3.83;0.00
23318;BME280;11831;55.918;37.746;2023-03-04T08:14:54;97171.00;;;3.70;0.00
23318;BME280;11831;55.918;37.746;2023-03-04T08:17:21;97162.06;;;3.42;0.00
23318;BME280;11831;55.918;37.746;2023-03-04T08:19:48;97166.78;;;3.12;0.00
23318;BME280;11831;55.918;37.746;2023-03-04T08:22:14;97162.56;;;3.56;0.00
23318;BME280;11831;55.918;37.746;2023-03-04T08:24:41;97159.31;;;4.33;0.00
23318;BME280;11831;55.918;37.746;2023-03-04T08:27:08;97148.47;;;3.51;0.00
23318;BME280;11831;55.918;37.746;2023-03-04T08:29:34;97149.87;;;4.03;0.00
23318;BME280;11831;55.918;37.746;2023-03-04T08:32:00;97145.84;;;2.94;0.00
23318;BME280;11831;55.918;37.746;2023-03-04T08:34:27;97147.50;;;2.71;0.00
23318;BME280;11831;55.918;37.746;2023-03-04T08:36:54;97141.09;;;3.07;0.00
23318;BME280;11831;55.918;37.746;2023-03-04T08:39:20;97144.69;;;3.47;0.00
23318;BME280;11831;55.918;37.746;2023-03-04T08:41:47;97138.00;;;3.27;0.00
23318;BME280;11831;55.918;37.746;2023-03-04T08:44:14;97128.28;;;3.61;0.00
23318;BME280;11831;55.918;37.746;2023-03-04T08:46:42;97136.56;;;3.20;0.00
23318;BME280;11831;55.918;37.746;2023-03-04T08:49:10;97127.28;;;3.79;0.00
23318;BME280;11831;55.918;37.746;2023-03-04T08:51:37;97128.53;;;3.60;0.00
23318;BME280;11831;55.918;37.746;2023-03-04T08:54:04;97127.69;;;4.43;0.00
23318;BME280;11831;55.918;37.746;2023-03-04T08:56:31;97117.91;;;4.44;0.00
23318;BME280;11831;55.918;37.746;2023-03-04T08:58:58;97129.72;;;4.36;0.00
23318;BME280;11831;55.918;37.746;2023-03-04T09:01:24;97107.34;;;4.27;0.00
23318;BME280;11831;55.918;37.746;2023-03-04T09:03:51;97117.69;;;4.67;0.00
23318;BME280;11831;55.918;37.746;2023-03-04T09:06:18;97120.44;;;3.50;0.00
23318;BME280;11831;55.918;37.746;2023-03-04T09:08:45;97115.06;;;4.12;0.00
23318;BME280;11831;55.918;37.746;2023-03-04T09:11:12;97101.09;;;4.33;0.00
23318;BME280;11831;55.918;37.746;2023-03-04T09:13:38;97111.94;;;3.98;0.00
23318;BME280;11831;55.918;37.746;2023-03-04T09:16:10;97106.44;;;3.99;0.00
23318;BME280;11831;55.918;37.746;2023-03-04T09:18:38;97096.19;;;4.63;0.00
23318;BME280;11831;55.918;37.746;2023-03-04T09:21:06;97102.72;;;4.78;0.00
23318;BME280;11831;55.918;37.746;2023-03-04T09:23:34;97095.69;;;4.06;0.00
23318;BME280;11831;55.918;37.746;2023-03-04T09:26:00;97083.28;;;4.67;0.00
23318;BME280;11831;55.918;37.746;2023-03-04T09:28:27;97081.16;;;4.47;0.00
23318;BME280;11831;55.918;37.746;2023-03-04T09:30:53;97070.72;;;4.35;0.00
23318;BME280;11831;55.918;37.746;2023-03-04T09:33:19;97070.69;;;4.57;0.00
23318;BME280;11831;55.918;37.746;2023-03-04T09:35:46;97065.22;;;5.13;0.00
23318;BME280;11831;55.918;37.746;2023-03-04T09:38:14;97061.94;;;4.13;0.00
23318;BME280;11831;55.918;37.746;2023-03-04T09:40:46;97051.63;;;4.33;0.00
23318;BME280;11831;55.918;37.746;2023-03-04T09:43:25;97050.00;;;4.98;0.00
23318;BME280;11831;55.918;37.746;2023-03-04T09:45:58;97041.53;;;5.60;0.00
23318;BME280;11831;55.918;37.746;2023-03-04T09:48:28;97037.94;;;5.81;0.00
23318;BME280;11831;55.918;37.746;2023-03-04T09:56:40;97031.03;;;6.85;0.00
23318;BME280;11831;55.918;37.746;2023-03-04T09:59:16;97022.53;;;5.78;0.00
23318;BME280;11831;55.918;37.746;2023-03-04T10:01:55;97008.94;;;6.02;0.00
23318;BME280;11831;55.918;37.746;2023-03-04T10:04:34;97017.16;;;6.63;0.00
23318;BME280;11831;55.918;37.746;2023-03-04T10:07:04;97008.09;;;6.43;0.00
23318;BME280;11831;55.918;37.746;2023-03-04T10:12:21;96994.38;;;5.67;0.00
23318;BME280;11831;55.918;37.746;2023-03-04T10:14:53;96993.62;;;5.77;0.00
23318;BME280;11831;55.918;37.746;2023-03-04T10:17:27;96988.50;;;5.23;0.00
23318;BME280;11831;55.918;37.746;2023-03-04T10:19:59;96991.53;;;4.78;0.00
23318;BME280;11831;55.918;37.746;2023-03-04T10:22:50;96976.28;;;4.36;0.00
23318;BME280;11831;55.918;37.746;2023-03-04T10:25:25;96977.91;;;4.42;0.00
23318;BME280;11831;55.918;37.746;2023-03-04T10:33:29;96960.94;;;4.60;0.00
23318;BME280;11831;55.918;37.746;2023-03-04T10:38:45;96960.09;;;4.32;0.00
23318;BME280;11831;55.918;37.746;2023-03-04T10:41:19;96956.06;;;4.52;0.00
23318;BME280;11831;55.918;37.746;2023-03-04T10:44:03;96953.13;;;5.07;0.00
23318;BME280;11831;55.918;37.746;2023-03-04T10:46:31;96942.72;;;4.42;0.00
23318;BME280;11831;55.918;37.746;2023-03-04T10:48:57;96940.09;;;4.42;0.00
23318;BME280;11831;55.918;37.746;2023-03-04T10:51:28;96939.28;;;4.95;0.00
23318;BME280;11831;55.918;37.746;2023-03-04T10:53:57;96931.28;;;4.90;0.00
23318;BME280;11831;55.918;37.746;2023-03-04T10:56:35;96918.22;;;6.05;0.00
23318;BME280;11831;55.918;37.746;2023-03-04T10:59:44;96921.78;;;5.73;0.00
23318;BME280;11831;55.918;37.746;2023-03-04T11:02:18;96905.59;;;6.32;0.00
23318;BME280;11831;55.918;37.746;2023-03-04T11:05:09;96906.34;;;6.12;0.00
23318;BME280;11831;55.918;37.746;2023-03-04T11:07:44;96893.13;;;6.33;0.00
23318;BME280;11831;55.918;37.746;2023-03-04T11:15:26;96886.75;;;6.29;0.00
23318;BME280;11831;55.918;37.746;2023-03-04T11:17:56;96880.94;;;6.47;0.00
23318;BME280;11831;55.918;37.746;2023-03-04T11:20:35;96870.63;;;6.81;0.00
23318;BME280;11831;55.918;37.746;2023-03-04T11:23:16;96871.69;;;6.85;0.00
23318;BME280;11831;55.918;37.746;2023-03-04T11:25:47;96860.78;;;6.87;0.00
23318;BME280;11831;55.918;37.746;2023-03-04T11:31:42;96848.28;;;6.97;0.00
23318;BME280;11831;55.918;37.746;2023-03-04T11:34:41;96852.78;;;7.22;0.00
23318;BME280;11831;55.918;37.746;2023-03-04T11:37:20;96851.22;;;6.45;0.00
23318;BME280;11831;55.918;37.746;2023-03-04T11:42:39;96844.81;;;6.31;0.00
23318;BME280;11831;55.918;37.746;2023-03-04T11:45:15;96850.56;;;5.40;0.00
23318;BME280;11831;55.918;37.746;2023-03-04T11:48:03;96852.47;;;6.12;0.00
23318;BME280;11831;55.918;37.746;2023-03-04T11:53:56;96836.22;;;5.30;0.00
23318;BME280;11831;55.918;37.746;2023-03-04T11:56:41;96832.38;;;5.53;0.00
23318;BME280;11831;55.918;37.746;2023-03-04T12:05:18;96811.53;;;5.82;0.00
23318;BME280;11831;55.918;37.746;2023-03-04T12:08:07;96812.28;;;5.78;0.00
23318;BME280;11831;55.918;37.746;2023-03-04T12:13:34;96805.44;;;5.87;0.00
23318;BME280;11831;55.918;37.746;2023-03-04T12:16:36;96803.16;;;5.48;0.00
23318;BME280;11831;55.918;37.746;2023-03-04T12:25:14;96791.81;;;5.53;0.00
23318;BME280;11831;55.918;37.746;2023-03-04T12:28:00;96791.87;;;5.78;0.00
23318;BME280;11831;55.918;37.746;2023-03-04T12:30:56;96782.22;;;5.47;0.00
23318;BME280;11831;55.918;37.746;2023-03-04T12:34:01;96777.19;;;5.40;0.00
23318;BME280;11831;55.918;37.746;2023-03-04T12:36:36;96773.69;;;6.38;0.00
23318;BME280;11831;55.918;37.746;2023-03-04T12:42:05;96766.69;;;5.03;0.00
23318;BME280;11831;55.918;37.746;2023-03-04T12:44:44;96767.31;;;5.25;0.00
23318;BME280;11831;55.918;37.746;2023-03-04T12:53:24;96755.09;;;6.02;0.00
23318;BME280;11831;55.918;37.746;2023-03-04T12:55:56;96749.34;;;5.43;0.00
23318;BME280;11831;55.918;37.746;2023-03-04T12:58:25;96754.59;;;5.22;0.00
23318;BME280;11831;55.918;37.746;2023-03-04T13:01:08;96749.84;;;5.24;0.00
23318;BME280;11831;55.918;37.746;2023-03-04T13:03:51;96747.97;;;5.25;0.00
23318;BME280;11831;55.918;37.746;2023-03-04T13:06:30;96734.13;;;5.13;0.00
23318;BME280;11831;55.918;37.746;2023-03-04T13:16:47;96710.63;;;5.21;0.00
23318;BME280;11831;55.918;37.746;2023-03-04T13:21:59;96715.47;;;4.87;0.00
23318;BME280;11831;55.918;37.746;2023-03-04T13:24:46;96710.41;;;4.81;0.00
23318;BME280;11831;55.918;37.746;2023-03-04T13:27:43;96703.13;;;5.03;0.00
23318;BME280;11831;55.918;37.746;2023-03-04T13:33:38;96691.47;;;4.52;0.00
23318;BME280;11831;55.918;37.746;2023-03-04T13:43:42;96683.81;;;4.55;0.00
23318;BME280;11831;55.918;37.746;2023-03-04T13:46:41;96684.22;;;4.79;0.00
23318;BME280;11831;55.918;37.746;2023-03-04T13:49:19;96672.13;;;4.46;0.00
23318;BME280;11831;55.918;37.746;2023-03-04T13:51:46;96672.75;;;4.21;0.00
23318;BME280;11831;55.918;37.746;2023-03-04T13:54:21;96680.41;;;3.59;0.00
23318;BME280;11831;55.918;37.746;2023-03-04T13:57:17;96653.97;;;3.86;0.00
23318;BME280;11831;55.918;37.746;2023-03-04T13:59:47;96652.69;;;3.93;0.00
23318;BME280;11831;55.918;37.746;2023-03-04T14:02:15;96657.16;;;3.56;0.00
23318;BME280;11831;55.918;37.746;2023-03-04T14:04:45;96653.38;;;3.47;0.00
23318;BME280;11831;55.918;37.746;2023-03-04T14:07:32;96656.94;;;3.35;0.00
23318;BME280;11831;55.918;37.746;2023-03-04T14:12:44;96640.94;;;3.74;0.00
23318;BME280;11831;55.918;37.746;2023-03-04T14:17:45;96638.47;;;2.87;0.00
23318;BME280;11831;55.918;37.746;2023-03-04T14:20:32;96632.53;;;3.23;0.00
23318;BME280;11831;55.918;37.746;2023-03-04T14:23:01;96621.09;;;3.71;0.00
23318;BME280;11831;55.918;37.746;2023-03-04T14:25:32;96637.03;;;3.01;0.00
23318;BME280;11831;55.918;37.746;2023-03-04T14:28:03;96625.31;;;3.40;0.00
23318;BME280;11831;55.918;37.746;2023-03-04T14:30:30;96627.47;;;3.17;0.00
23318;BME280;11831;55.918;37.746;2023-03-04T14:32:58;96623.66;;;3.34;0.00
23318;BME280;11831;55.918;37.746;2023-03-04T14:35:30;96627.06;;;3.30;0.00
23318;BME280;11831;55.918;37.746;2023-03-04T14:38:12;96616.06;;;2.89;0.00
23318;BME280;11831;55.918;37.746;2023-03-04T14:40:44;96605.66;;;3.31;0.00
23318;BME280;11831;55.918;37.746;2023-03-04T14:43:21;96595.88;;;3.27;0.00
23318;BME280;11831;55.918;37.746;2023-03-04T14:45:50;96610.25;;;2.87;0.00
23318;BME280;11831;55.918;37.746;2023-03-04T14:50:55;96604.53;;;2.95;0.00
23318;BME280;11831;55.918;37.746;2023-03-04T14:53:24;96589.16;;;3.41;0.00
23318;BME280;11831;55.918;37.746;2023-03-04T14:56:04;96589.78;;;3.26;0.00